Time;durP1;ratioP1;P1;durP2;ratioP2;P2;SDS_P1;SDS_P2;PMS_P1;PMS_P2;Temp;Humidity;BMP_temperature;BMP_pressure;BME280_temperature;BME280_humidity;BME280_pressure;Samples;Min_cycle;Max_cycle;Signal;HPM_P1;HPM_P2
2024/02/25 00:02:49;;;;;;;13.30;8.20;;;;;;;8.63;70.43;99691.58;104342;1289;600266;-39
2024/02/25 00:05:16;;;;;;;13.10;7.90;;;;;;;8.60;70.64;99693.62;106646;1264;60065;-39
2024/02/25 00:07:45;;;;;;;11.30;7.60;;;;;;;8.57;70.84;99694.21;106680;1264;59992;-39
2024/02/25 00:10:12;;;;;;;15.80;8.80;;;;;;;8.56;70.89;99692.81;106660;1264;72218;-39
2024/02/25 00:12:40;;;;;;;11.90;8.00;;;;;;;8.55;71.17;99693.87;106753;1264;67076;-39
2024/02/25 00:15:08;;;;;;;14.60;8.20;;;;;;;8.55;71.17;99703.73;106773;1264;72629;-39
2024/02/25 00:17:36;;;;;;;12.00;8.00;;;;;;;8.54;71.25;99704.33;106780;1264;178377;-39
2024/02/25 00:20:04;;;;;;;12.80;7.90;;;;;;;8.56;71.39;99707.54;106924;1261;60008;-39
2024/02/25 00:22:32;;;;;;;16.20;8.70;;;;;;;8.57;71.36;99709.41;106919;1262;72708;-39
2024/02/25 00:24:59;;;;;;;12.30;8.20;;;;;;;8.55;71.44;99713.86;106891;1261;67895;-39
2024/02/25 00:27:27;;;;;;;14.30;9.30;;;;;;;8.52;71.58;99716.98;106881;1264;71347;-39
2024/02/25 00:29:54;;;;;;;12.90;8.50;;;;;;;8.47;71.88;99717.59;106856;1261;61728;-39
2024/02/25 00:32:25;;;;;;;21.50;8.80;;;;;;;8.44;71.93;99720.89;106910;1261;60040;-40
2024/02/25 00:34:53;;;;;;;16.20;9.70;;;;;;;8.43;72.25;99723.39;106913;1261;73034;-38
2024/02/25 00:37:20;;;;;;;18.30;9.40;;;;;;;8.40;72.50;99720.28;106870;1261;67566;-39
2024/02/25 00:39:48;;;;;;;18.90;9.40;;;;;;;8.37;72.71;99724.06;106105;1261;1003701;-40
2024/02/25 00:42:15;;;;;;;15.80;9.00;;;;;;;8.35;72.86;99727.70;107081;1257;61855;-39
2024/02/25 00:44:48;;;;;;;15.00;8.80;;;;;;;8.35;72.97;99725.23;107053;1258;59385;-39
2024/02/25 00:47:16;;;;;;;16.70;9.00;;;;;;;8.34;73.02;99721.01;107092;1258;72100;-38
2024/02/25 00:49:43;;;;;;;17.50;9.60;;;;;;;8.35;73.19;99717.98;107060;1258;68470;-39
2024/02/25 00:52:11;;;;;;;17.60;10.00;;;;;;;8.35;73.08;99716.98;107058;1261;71395;-39
2024/02/25 00:54:43;;;;;;;14.70;9.60;;;;;;;8.34;73.07;99711.16;107044;1258;60890;-39
2024/02/25 00:57:12;;;;;;;17.60;10.30;;;;;;;8.33;73.33;99717.44;107053;1258;59380;-39
2024/02/25 00:59:39;;;;;;;19.10;10.10;;;;;;;8.31;73.47;99720.31;107009;1259;73031;-39
2024/02/25 01:02:08;;;;;;;17.60;9.70;;;;;;;8.30;73.55;99719.44;107003;1259;67926;-39
2024/02/25 01:04:35;;;;;;;14.80;9.60;;;;;;;8.31;73.46;99718.60;107059;1259;72678;-39
2024/02/25 01:07:03;;;;;;;15.10;9.30;;;;;;;8.31;73.48;99716.83;106880;1259;62227;-39
2024/02/25 01:09:30;;;;;;;16.90;9.50;;;;;;;8.30;73.45;99712.25;106892;1260;59576;-38
2024/02/25 01:11:58;;;;;;;17.00;9.60;;;;;;;8.28;73.47;99716.13;106888;1260;72090;-39
2024/02/25 01:14:25;;;;;;;20.20;11.30;;;;;;;8.24;73.44;99714.13;106882;1260;68359;-40
2024/02/25 01:16:54;;;;;;;22.40;11.90;;;;;;;8.19;73.70;99718.19;106874;1260;72676;-40
2024/02/25 01:19:22;;;;;;;18.00;10.60;;;;;;;8.09;73.83;99709.05;106879;1263;60423;-40
2024/02/25 01:21:53;;;;;;;21.40;11.20;;;;;;;8.12;74.14;99727.44;106872;1265;59231;-40
2024/02/25 01:24:20;;;;;;;20.50;10.50;;;;;;;8.08;74.22;99721.81;106857;1260;73026;-40
2024/02/25 01:26:48;;;;;;;20.30;10.50;;;;;;;8.05;74.28;99721.02;106875;1260;67924;-40
2024/02/25 01:29:16;;;;;;;17.70;10.20;;;;;;;8.09;74.39;99725.95;106871;1260;72671;-40
2024/02/25 01:31:44;;;;;;;19.80;11.40;;;;;;;8.11;74.04;99724.23;106890;1260;61261;-40
2024/02/25 01:34:12;;;;;;;23.50;12.00;;;;;;;8.08;73.66;99729.70;106930;1260;59526;-40
2024/02/25 01:36:40;;;;;;;21.20;11.40;;;;;;;8.07;73.45;99728.40;107017;1260;72973;-40
2024/02/25 01:39:09;;;;;;;18.90;11.50;;;;;;;8.04;73.50;99736.02;107040;1260;66699;-40
2024/02/25 01:41:37;;;;;;;22.70;12.00;;;;;;;8.02;73.44;99740.80;106937;1261;72707;-40
2024/02/25 01:44:04;;;;;;;20.70;11.90;;;;;;;7.98;73.60;99737.06;107056;1260;60238;-40
2024/02/25 01:46:32;;;;;;;23.80;12.10;;;;;;;7.95;73.56;99737.23;107044;1258;60377;-40
2024/02/25 01:49:00;;;;;;;18.20;11.20;;;;;;;7.92;73.62;99742.65;107065;1261;73189;-40
2024/02/25 01:51:28;;;;;;;21.20;11.50;;;;;;;7.91;73.70;99739.25;106932;1261;67563;-39
2024/02/25 01:53:55;;;;;;;18.40;10.90;;;;;;;7.89;73.54;99737.52;107038;1260;72582;-40
2024/02/25 01:56:23;;;;;;;19.60;11.60;;;;;;;7.88;73.52;99734.78;107071;1260;60382;-40
2024/02/25 01:58:53;;;;;;;22.10;11.20;;;;;;;7.87;73.40;99734.88;107051;1261;60191;-40
2024/02/25 02:01:21;;;;;;;;;;;;;;;7.85;73.31;99730.98;107073;1266;74116;-39
2024/02/25 02:03:48;;;;;;;22.20;11.70;;;;;;;7.85;73.14;99734.83;107078;1259;66749;-39
2024/02/25 02:06:16;;;;;;;19.20;10.60;;;;;;;7.79;72.81;99722.09;107051;1261;72702;-39
2024/02/25 02:08:44;;;;;;;19.70;11.80;;;;;;;7.77;72.65;99720.67;107033;1261;60750;-39
2024/02/25 02:11:14;;;;;;;24.70;11.20;;;;;;;7.79;72.67;99722.73;107069;1261;59490;-39
2024/02/25 02:13:42;;;;;;;24.20;12.30;;;;;;;7.75;72.60;99729.61;107055;1260;73055;-39
2024/02/25 02:16:12;;;;;;;18.10;10.90;;;;;;;7.72;72.59;99729.21;107055;1261;67967;-39
2024/02/25 02:18:41;;;;;;;19.20;11.50;;;;;;;7.71;72.73;99729.23;107036;1261;72947;-39
2024/02/25 02:21:09;;;;;;;17.90;10.90;;;;;;;7.69;72.76;99718.53;107051;1260;61688;-39
2024/02/25 02:23:37;;;;;;;22.00;11.70;;;;;;;7.68;72.93;99716.95;107029;1259;60067;-39
2024/02/25 02:26:04;;;;;;;20.70;11.30;;;;;;;7.68;73.01;99720.48;107044;1259;71842;-39
2024/02/25 02:28:32;;;;;;;17.60;10.30;;;;;;;7.69;73.02;99729.63;107082;1265;67610;-39
2024/02/25 02:30:59;;;;;;;18.80;11.50;;;;;;;7.69;73.06;99726.00;107054;1260;72682;-39
2024/02/25 02:33:27;;;;;;;20.50;11.90;;;;;;;7.69;73.02;99732.42;107030;1261;61728;-39
2024/02/25 02:35:55;;;;;;;18.40;12.10;;;;;;;7.68;72.78;99734.38;107056;1261;59495;-39
2024/02/25 02:38:24;;;;;;;19.20;11.00;;;;;;;7.66;72.69;99733.66;107075;1261;71752;-39
2024/02/25 02:40:51;;;;;;;20.90;12.30;;;;;;;7.63;72.60;99735.26;107067;1260;66294;-38
2024/02/25 02:43:19;;;;;;;19.60;11.90;;;;;;;7.59;72.69;99732.27;107026;1260;71390;-38
2024/02/25 02:45:47;;;;;;;19.70;12.20;;;;;;;7.56;72.70;99728.92;107034;1264;60554;-39
2024/02/25 02:48:15;;;;;;;19.60;11.50;;;;;;;7.54;72.99;99729.52;107052;1261;59673;-39
2024/02/25 02:50:43;;;;;;;19.40;11.40;;;;;;;7.52;72.94;99734.98;107027;1259;73097;-39
2024/02/25 02:53:11;;;;;;;21.10;10.90;;;;;;;7.51;73.01;99737.97;107037;1261;67034;-39
2024/02/25 02:55:38;;;;;;;18.30;11.60;;;;;;;7.52;73.20;99732.13;107035;1260;72688;-39
2024/02/25 02:58:06;;;;;;;21.10;11.20;;;;;;;7.52;73.25;99728.52;107055;1258;60373;-39
2024/02/25 03:00:34;;;;;;;19.70;11.50;;;;;;;7.51;73.09;99727.94;107076;1261;59323;-39
2024/02/25 03:03:02;;;;;;;23.50;11.60;;;;;;;7.49;72.98;99727.19;107051;1261;73070;-40
2024/02/25 03:05:30;;;;;;;23.80;12.50;;;;;;;7.48;73.06;99720.42;106997;1260;66574;-39
2024/02/25 03:07:58;;;;;;;22.30;11.90;;;;;;;7.46;73.01;99726.23;107050;1259;72794;-39
2024/02/25 03:10:26;;;;;;;20.80;12.40;;;;;;;7.43;73.06;99723.77;107030;1261;60103;-39
2024/02/25 03:12:53;;;;;;;22.80;12.20;;;;;;;7.39;73.00;99725.29;107049;1259;60027;-39
2024/02/25 03:15:21;;;;;;;23.10;12.70;;;;;;;7.37;73.21;99726.81;107027;1261;73072;-39
2024/02/25 03:17:48;;;;;;;22.30;12.20;;;;;;;7.36;73.18;99729.55;107080;1265;66309;-38
2024/02/25 03:20:19;;;;;;;22.00;11.60;;;;;;;7.34;73.17;99731.14;107034;1261;73011;-39
2024/02/25 03:22:47;;;;;;;18.50;11.90;;;;;;;7.34;73.14;99729.64;106951;1261;60400;-39
2024/02/25 03:25:14;;;;;;;23.50;11.80;;;;;;;7.35;73.15;99738.08;106981;1261;60100;-39
2024/02/25 03:27:42;;;;;;;21.60;11.80;;;;;;;7.35;73.11;99741.89;106961;1258;70710;-39
2024/02/25 03:30:10;;;;;;;20.70;11.70;;;;;;;7.34;72.89;99745.92;106982;1260;67672;-38
2024/02/25 03:32:38;;;;;;;19.00;11.90;;;;;;;7.33;72.84;99750.11;107013;1265;72578;-39
2024/02/25 03:35:07;;;;;;;22.40;12.50;;;;;;;7.32;72.90;99755.40;107041;1261;60243;-38
2024/02/25 03:37:34;;;;;;;22.20;11.90;;;;;;;7.31;72.92;99749.02;107009;1261;60075;-39
2024/02/25 03:40:02;;;;;;;22.20;12.80;;;;;;;7.28;72.99;99751.98;107367;1255;73015;-38
2024/02/25 03:42:29;;;;;;;22.60;12.50;;;;;;;7.25;72.99;99750.20;107291;1260;67104;-39
2024/02/25 03:44:57;;;;;;;19.40;11.60;;;;;;;7.24;73.07;99743.67;107348;1260;72677;-39
2024/02/25 03:47:25;;;;;;;23.00;12.80;;;;;;;7.23;72.75;99743.58;107334;1258;61645;-39
2024/02/25 03:49:52;;;;;;;20.20;11.90;;;;;;;7.22;72.81;99744.98;107353;1254;59857;-39
2024/02/25 03:52:20;;;;;;;18.00;11.10;;;;;;;7.21;72.85;99746.02;107384;1254;73028;-39
2024/02/25 03:54:48;;;;;;;25.40;12.60;;;;;;;7.19;72.89;99746.05;107299;1254;65737;-39
2024/02/25 03:57:15;;;;;;;27.20;12.10;;;;;;;7.20;72.89;99741.98;107311;1255;72682;-39
2024/02/25 03:59:43;;;;;;;22.00;11.40;;;;;;;7.21;72.67;99746.10;107326;1258;61666;-39
2024/02/25 04:02:11;;;;;;;21.70;11.60;;;;;;;7.21;72.45;99744.71;107241;1258;59189;-39
2024/02/25 04:04:39;;;;;;;19.00;11.30;;;;;;;7.19;72.49;99750.96;107300;1257;73022;-38
2024/02/25 04:07:07;;;;;;;21.50;11.70;;;;;;;7.16;72.41;99746.67;107299;1259;67656;-39
2024/02/25 04:09:34;;;;;;;22.30;12.30;;;;;;;7.14;72.41;99751.47;107313;1257;70437;-38
2024/02/25 04:12:02;;;;;;;19.40;11.30;;;;;;;7.13;72.27;99753.02;106576;1260;1003048;-39
2024/02/25 04:14:31;;;;;;;18.60;11.20;;;;;;;7.13;72.13;99748.08;107373;1258;60398;-39
2024/02/25 04:16:59;;;;;;;17.70;10.80;;;;;;;7.14;71.93;99751.98;107444;1258;73905;-38
2024/02/25 04:19:26;;;;;;;15.60;9.50;;;;;;;7.15;71.94;99750.17;107255;1256;66420;-39
2024/02/25 04:21:54;;;;;;;15.90;9.90;;;;;;;7.15;71.98;99745.86;107320;1258;72641;-39
2024/02/25 04:24:22;;;;;;;18.60;10.10;;;;;;;7.15;71.75;99751.19;107278;1256;61671;-39
2024/02/25 04:26:49;;;;;;;18.90;9.90;;;;;;;7.15;71.79;99749.10;107313;1255;59998;-39
2024/02/25 04:29:17;;;;;;;18.70;10.90;;;;;;;7.13;71.82;99749.41;107319;1260;73901;-39
2024/02/25 04:31:47;;;;;;;18.40;10.70;;;;;;;7.12;71.84;99747.36;107334;1260;68038;-39
2024/02/25 04:34:15;;;;;;;19.00;10.40;;;;;;;7.10;71.64;99748.39;107305;1257;71443;-39
2024/02/25 04:36:42;;;;;;;18.00;9.60;;;;;;;7.09;71.62;99745.10;107423;1260;60831;-39
2024/02/25 04:39:10;;;;;;;16.20;9.70;;;;;;;7.08;71.60;99749.00;106545;1257;1002985;-39
2024/02/25 04:41:37;;;;;;;19.80;10.30;;;;;;;7.08;71.62;99752.14;107711;1257;73878;-39
2024/02/25 04:44:06;;;;;;;17.60;9.90;;;;;;;7.08;71.55;99752.23;107736;1251;66228;-39
2024/02/25 04:46:35;;;;;;;17.40;10.20;;;;;;;7.10;71.72;99752.98;107724;1257;72661;-39
2024/02/25 04:49:03;;;;;;;15.30;8.60;;;;;;;7.11;71.57;99752.27;107773;1256;60374;-39
2024/02/25 04:51:35;;;;;;;13.90;8.90;;;;;;;7.12;71.56;99752.09;107711;1256;60571;-39
2024/02/25 04:54:02;;;;;;;16.60;9.90;;;;;;;7.12;71.49;99753.86;107709;1251;72575;-39
2024/02/25 04:56:30;;;;;;;16.00;8.80;;;;;;;7.12;71.55;99754.90;107724;1252;67871;-39
2024/02/25 04:58:58;;;;;;;17.10;10.40;;;;;;;7.10;71.59;99748.84;107708;1256;72741;-39
2024/02/25 05:01:25;;;;;;;17.30;9.90;;;;;;;7.11;71.66;99749.02;107684;1254;60590;-39
2024/02/25 05:03:53;;;;;;;13.90;8.70;;;;;;;7.11;71.63;99747.72;107747;1251;60440;-39
2024/02/25 05:06:21;;;;;;;15.80;9.90;;;;;;;7.13;71.57;99748.61;107691;1257;73824;-39
2024/02/25 05:08:49;;;;;;;16.00;9.40;;;;;;;7.14;71.45;99751.60;107722;1251;66632;-40
2024/02/25 05:11:17;;;;;;;13.90;9.30;;;;;;;7.15;71.11;99761.52;107758;1256;72652;-39
2024/02/25 05:13:44;;;;;;;12.70;8.70;;;;;;;7.14;71.22;99763.02;107738;1254;60548;-39
2024/02/25 05:16:12;;;;;;;19.00;10.70;;;;;;;7.13;71.17;99761.42;107715;1257;60380;-40
2024/02/25 05:18:40;;;;;;;17.20;10.60;;;;;;;7.14;71.31;99765.61;107676;1257;73854;-40
2024/02/25 05:21:08;;;;;;;16.60;9.80;;;;;;;7.15;71.19;99764.29;107749;1254;67537;-39
2024/02/25 05:23:36;;;;;;;15.50;9.00;;;;;;;7.15;71.16;99766.38;107705;1251;72735;-39
2024/02/25 05:26:03;;;;;;;14.20;8.80;;;;;;;7.15;71.10;99766.70;107694;1257;60524;-39
2024/02/25 05:28:31;;;;;;;16.10;9.20;;;;;;;7.16;71.28;99768.56;107709;1256;60336;-39
2024/02/25 05:30:59;;;;;;;14.70;9.30;;;;;;;7.17;71.16;99763.76;107720;1256;73901;-39
2024/02/25 05:33:27;;;;;;;15.60;9.30;;;;;;;7.17;70.83;99770.22;107703;1251;67558;-39
2024/02/25 05:35:55;;;;;;;16.10;9.30;;;;;;;7.16;70.66;99767.27;107736;1251;72635;-39
2024/02/25 05:38:22;;;;;;;15.80;10.00;;;;;;;7.14;70.91;99764.19;107703;1255;60507;-39
2024/02/25 05:40:50;;;;;;;17.90;10.10;;;;;;;7.13;70.72;99763.21;107730;1256;60466;-39
2024/02/25 05:43:17;;;;;;;19.80;10.90;;;;;;;7.13;70.62;99762.95;107741;1257;73844;-39
2024/02/25 05:45:47;;;;;;;14.80;9.00;;;;;;;7.11;70.35;99762.11;107658;1257;67566;-39
2024/02/25 05:48:14;;;;;;;15.60;10.00;;;;;;;7.09;70.49;99765.68;107717;1256;73078;-39
2024/02/25 05:50:42;;;;;;;15.60;9.90;;;;;;;7.09;70.58;99768.22;107702;1257;60694;-39
2024/02/25 05:53:09;;;;;;;16.60;9.70;;;;;;;7.10;70.50;99763.63;107643;1251;60478;-39
2024/02/25 05:55:37;;;;;;;16.20;9.80;;;;;;;7.12;70.47;99763.16;107675;1252;72788;-39
2024/02/25 05:58:05;;;;;;;16.00;10.00;;;;;;;7.14;70.14;99762.92;107722;1251;67568;-39
2024/02/25 06:00:33;;;;;;;17.40;9.70;;;;;;;7.15;70.02;99765.59;107655;1256;71328;-39
2024/02/25 06:03:00;;;;;;;18.40;10.00;;;;;;;7.15;70.01;99759.52;107700;1255;61851;-39
2024/02/25 06:05:30;;;;;;;18.90;10.10;;;;;;;7.17;69.93;99755.73;107737;1251;60507;-39
2024/02/25 06:07:59;;;;;;;17.50;9.90;;;;;;;7.17;69.67;99753.10;107649;1251;73099;-39
2024/02/25 06:10:26;;;;;;;16.20;10.40;;;;;;;7.15;69.66;99751.25;107742;1257;67535;-39
2024/02/25 06:12:54;;;;;;;14.50;10.30;;;;;;;7.14;69.36;99756.61;107734;1251;72504;-40
2024/02/25 06:15:21;;;;;;;18.00;10.50;;;;;;;7.12;69.46;99752.30;107742;1254;60938;-40
2024/02/25 06:17:49;;;;;;;15.90;10.20;;;;;;;7.12;69.32;99753.45;107622;1251;60307;-40
2024/02/25 06:20:16;;;;;;;14.60;9.40;;;;;;;7.11;69.28;99756.52;107699;1252;73816;-40
2024/02/25 06:22:48;;;;;;;19.20;10.80;;;;;;;7.11;69.14;99755.18;107741;1252;67640;-40
2024/02/25 06:25:16;;;;;;;16.50;10.50;;;;;;;7.11;69.23;99757.58;107702;1250;72779;-40
2024/02/25 06:27:43;;;;;;;17.40;9.30;;;;;;;7.13;68.90;99760.58;107682;1252;61678;-40
2024/02/25 06:30:12;;;;;;;20.20;10.20;;;;;;;7.13;68.81;99762.14;107614;1251;60405;-40
2024/02/25 06:32:40;;;;;;;12.20;9.00;;;;;;;7.14;68.80;99758.27;107753;1251;73916;-40
2024/02/25 06:35:08;;;;;;;14.60;9.50;;;;;;;7.16;68.80;99753.67;107687;1256;67998;-40
2024/02/25 06:37:36;;;;;;;15.40;9.10;;;;;;;7.16;68.33;99760.41;107781;1253;72126;-40
2024/02/25 06:40:04;;;;;;;16.40;9.00;;;;;;;7.16;68.48;99758.26;107660;1252;59218;-39
2024/02/25 06:42:32;;;;;;;14.10;9.60;;;;;;;7.17;68.23;99758.42;107735;1256;60254;-39
2024/02/25 06:45:00;;;;;;;17.70;9.40;;;;;;;7.17;67.95;99764.66;107752;1251;73843;-39
2024/02/25 06:47:28;;;;;;;13.60;9.10;;;;;;;7.15;67.92;99762.67;107787;1256;67715;-39
2024/02/25 06:49:56;;;;;;;13.10;8.70;;;;;;;7.16;68.01;99767.80;107704;1257;72671;-38
2024/02/25 06:52:24;;;;;;;15.10;8.60;;;;;;;7.17;67.99;99766.84;107657;1254;60423;-38
2024/02/25 06:54:52;;;;;;;13.60;8.20;;;;;;;7.19;67.82;99766.38;107760;1251;60096;-39
2024/02/25 06:57:20;;;;;;;15.00;7.80;;;;;;;7.20;67.42;99769.96;107733;1251;73813;-38
2024/02/25 06:59:48;;;;;;;14.20;8.40;;;;;;;7.20;66.98;99777.13;107747;1256;68333;-39
2024/02/25 07:02:16;;;;;;;15.00;8.40;;;;;;;7.21;67.14;99783.69;107758;1251;72682;-39
2024/02/25 07:04:43;;;;;;;15.20;8.00;;;;;;;7.22;67.39;99785.73;107720;1254;60284;-39
2024/02/25 07:07:11;;;;;;;10.80;7.80;;;;;;;7.23;67.15;99791.92;107749;1256;60673;-39
2024/02/25 07:09:39;;;;;;;13.20;7.90;;;;;;;7.23;67.21;99801.63;107588;1254;73860;-39
2024/02/25 07:12:07;;;;;;;12.00;8.00;;;;;;;7.25;67.02;99804.05;107697;1255;67580;-39
2024/02/25 07:14:35;;;;;;;12.00;6.90;;;;;;;7.28;67.21;99799.98;107688;1257;71783;-39
2024/02/25 07:17:02;;;;;;;12.80;7.20;;;;;;;7.31;67.14;99799.96;107608;1254;60476;-38
2024/02/25 07:19:30;;;;;;;15.30;8.20;;;;;;;7.33;66.79;99802.05;107527;1255;60143;-38
2024/02/25 07:21:58;;;;;;;11.30;7.50;;;;;;;7.35;66.68;99805.66;107550;1253;73856;-39
2024/02/25 07:24:25;;;;;;;10.30;6.70;;;;;;;7.33;66.62;99810.40;107514;1253;68824;-39
2024/02/25 07:26:54;;;;;;;10.10;6.80;;;;;;;7.31;66.57;99813.93;107499;1255;74805;-39
2024/02/25 07:29:22;;;;;;;12.10;6.90;;;;;;;7.29;66.36;99818.16;107513;1255;60505;-39
2024/02/25 07:31:53;;;;;;;10.00;7.10;;;;;;;7.30;66.75;99817.40;107549;1257;60978;-38
2024/02/25 07:34:21;;;;;;;11.20;6.90;;;;;;;7.30;66.81;99815.49;107565;1257;71983;-39
2024/02/25 07:36:49;;;;;;;12.40;7.20;;;;;;;7.32;67.17;99816.55;107523;1254;67916;-39
2024/02/25 07:39:17;;;;;;;11.90;7.20;;;;;;;7.34;67.12;99821.27;107543;1256;72686;-39
2024/02/25 07:41:44;;;;;;;12.50;7.20;;;;;;;7.35;67.26;99821.63;107502;1254;61154;-39
2024/02/25 07:44:12;;;;;;;13.00;6.60;;;;;;;7.36;67.44;99821.56;107514;1257;59251;-39
2024/02/25 07:46:39;;;;;;;9.80;6.60;;;;;;;7.37;67.70;99821.38;107552;1254;73854;-38
2024/02/25 07:49:07;;;;;;;10.30;6.50;;;;;;;7.37;67.92;99816.02;107576;1255;67561;-38
2024/02/25 07:51:35;;;;;;;10.40;6.80;;;;;;;7.37;67.74;99813.39;107424;1254;72688;-39
2024/02/25 07:54:03;;;;;;;10.70;6.50;;;;;;;7.34;67.85;99813.40;106682;1254;1003671;-38
2024/02/25 07:56:31;;;;;;;11.40;7.20;;;;;;;7.31;67.83;99814.61;107659;1251;60280;-38
2024/02/25 07:58:59;;;;;;;9.20;6.50;;;;;;;7.29;68.05;99812.45;107486;1254;73890;-39
2024/02/25 08:01:27;;;;;;;10.00;6.50;;;;;;;7.30;67.91;99816.96;107543;1254;66422;-39
2024/02/25 08:03:54;;;;;;;12.80;6.70;;;;;;;7.30;67.81;99817.18;107605;1254;72694;-40
2024/02/25 08:06:28;;;;;;;10.20;6.40;;;;;;;7.27;67.73;99818.01;107453;1253;60467;-40
2024/02/25 08:08:56;;;;;;;9.10;6.20;;;;;;;7.26;67.96;99816.10;107461;1254;60386;-40
2024/02/25 08:11:24;;;;;;;9.90;6.40;;;;;;;7.25;67.94;99820.69;107563;1257;73850;-40
2024/02/25 08:13:52;;;;;;;11.60;6.80;;;;;;;7.22;67.58;99819.55;107558;1255;67556;-40
2024/02/25 08:16:19;;;;;;;10.00;6.70;;;;;;;7.19;67.48;99812.41;107518;1253;72794;-39
2024/02/25 08:18:47;;;;;;;8.80;6.40;;;;;;;7.16;67.72;99816.85;107555;1253;60401;-39
2024/02/25 08:21:15;;;;;;;10.00;6.30;;;;;;;7.13;67.89;99813.20;107511;1251;60537;-39
2024/02/25 08:23:43;;;;;;;13.90;6.60;;;;;;;7.12;67.96;99813.93;107495;1254;73876;-39
2024/02/25 08:26:13;;;;;;;13.40;6.10;;;;;;;7.12;67.88;99814.06;107503;1256;67539;-39
2024/02/25 08:28:40;;;;;;;10.20;6.10;;;;;;;7.11;67.97;99813.89;107591;1257;72719;-39
2024/02/25 08:31:08;;;;;;;10.80;6.80;;;;;;;7.11;68.20;99807.26;107509;1253;60787;-39
2024/02/25 08:33:35;;;;;;;11.30;6.70;;;;;;;7.11;67.95;99802.86;107528;1251;60370;-40
2024/02/25 08:36:04;;;;;;;12.80;7.20;;;;;;;7.09;68.25;99801.80;107611;1251;72883;-39
2024/02/25 08:38:31;;;;;;;11.40;7.00;;;;;;;7.06;68.88;99802.96;107598;1251;67574;-39
2024/02/25 08:40:59;;;;;;;8.80;6.20;;;;;;;7.02;69.17;99799.02;107612;1252;72814;-39
2024/02/25 08:43:27;;;;;;;10.70;6.70;;;;;;;6.98;69.53;99805.13;107517;1258;60550;-39
2024/02/25 08:45:55;;;;;;;13.60;6.80;;;;;;;6.96;69.37;99803.59;107660;1251;59298;-39
2024/02/25 08:48:22;;;;;;;9.50;6.30;;;;;;;6.95;69.74;99795.23;107637;1251;72642;-39
2024/02/25 08:50:50;;;;;;;11.10;6.00;;;;;;;6.95;69.75;99794.63;107502;1254;67622;-40
2024/02/25 08:53:19;;;;;;;10.90;6.00;;;;;;;6.97;69.95;99792.71;107471;1257;72693;-39
2024/02/25 08:55:47;;;;;;;10.90;6.00;;;;;;;6.99;70.04;99787.08;107516;1251;61654;-39
2024/02/25 08:58:14;;;;;;;13.50;6.30;;;;;;;7.02;69.49;99789.88;107618;1251;60377;-39
2024/02/25 09:00:44;;;;;;;11.70;6.30;;;;;;;7.05;69.21;99786.77;107485;1252;75966;-40
2024/02/25 09:03:13;;;;;;;11.00;6.60;;;;;;;7.05;68.80;99791.62;107510;1254;67569;-39
2024/02/25 09:05:41;;;;;;;11.00;6.20;;;;;;;7.06;68.79;99792.03;107532;1254;72691;-39
2024/02/25 09:08:09;;;;;;;11.90;6.60;;;;;;;7.07;68.88;99786.36;107495;1254;60895;-40
2024/02/25 09:10:37;;;;;;;10.00;6.00;;;;;;;7.10;68.58;99786.29;107598;1254;60951;-40
2024/02/25 09:13:05;;;;;;;11.00;5.90;;;;;;;7.15;68.28;99791.47;107502;1254;73984;-39
2024/02/25 09:15:32;;;;;;;9.40;6.10;;;;;;;7.18;68.14;99785.26;107540;1254;66608;-40
2024/02/25 09:18:03;;;;;;;11.00;6.00;;;;;;;7.22;68.16;99781.70;107530;1257;74880;-39
2024/02/25 09:20:33;;;;;;;10.80;6.80;;;;;;;7.25;68.01;99780.30;107487;1257;60919;-39
2024/02/25 09:23:02;;;;;;;10.50;6.50;;;;;;;7.29;67.86;99777.54;107488;1253;60388;-39
2024/02/25 09:25:33;;;;;;;11.10;6.20;;;;;;;7.34;68.04;99778.35;107518;1254;72712;-39
2024/02/25 09:28:04;;;;;;;10.40;6.30;;;;;;;7.37;67.57;99778.38;107479;1257;67888;-40
2024/02/25 09:30:32;;;;;;;9.60;5.70;;;;;;;7.40;67.41;99774.74;107375;1254;74355;-39
2024/02/25 09:33:02;;;;;;;8.60;5.70;;;;;;;7.43;67.09;99770.00;107560;1254;60862;-40
2024/02/25 09:35:31;;;;;;;12.50;6.10;;;;;;;7.44;66.83;99768.02;107462;1253;60292;-40
2024/02/25 09:37:58;;;;;;;11.30;6.20;;;;;;;7.43;66.31;99768.06;107476;1257;76144;-40
2024/02/25 09:40:26;;;;;;;12.80;6.40;;;;;;;7.41;66.49;99766.92;107492;1254;66369;-40
2024/02/25 09:42:53;;;;;;;12.00;6.60;;;;;;;7.39;66.50;99770.63;107529;1257;73180;-40
2024/02/25 09:45:22;;;;;;;11.30;6.60;;;;;;;7.36;66.58;99770.05;107499;1254;60100;-39
2024/02/25 09:47:53;;;;;;;9.90;6.00;;;;;;;7.33;66.63;99767.20;107728;1253;60273;-40
2024/02/25 09:50:21;;;;;;;11.80;6.00;;;;;;;7.31;66.98;99774.38;107690;1254;71586;-39
2024/02/25 09:52:49;;;;;;;12.30;6.40;;;;;;;7.29;67.04;99772.55;107392;1254;66308;-40
2024/02/25 09:55:17;;;;;;;9.10;6.40;;;;;;;7.30;67.28;99774.05;107363;1253;71375;-39
2024/02/25 09:57:44;;;;;;;9.50;5.90;;;;;;;7.34;67.10;99774.50;107455;1257;60432;-40
2024/02/25 10:00:12;;;;;;;10.90;6.30;;;;;;;7.38;67.09;99777.81;107497;1254;59348;-40
2024/02/25 10:02:40;;;;;;;14.50;6.30;;;;;;;7.42;67.05;99777.20;107633;1254;73238;-40
2024/02/25 10:05:08;;;;;;;13.20;6.20;;;;;;;7.47;66.93;99773.97;107395;1253;67088;-40
2024/02/25 10:07:36;;;;;;;10.30;5.90;;;;;;;7.52;66.89;99772.47;107234;1254;72723;-40
2024/02/25 10:10:04;;;;;;;10.30;6.20;;;;;;;7.55;66.78;99776.20;107588;1254;60425;-40
2024/02/25 10:12:33;;;;;;;8.50;5.50;;;;;;;7.56;66.86;99775.48;107492;1253;59701;-40
2024/02/25 10:15:00;;;;;;;13.50;6.40;;;;;;;7.58;67.01;99772.63;107480;1253;73872;-40
2024/02/25 10:17:28;;;;;;;14.30;6.20;;;;;;;7.63;66.80;99772.88;107643;1253;66188;-40
2024/02/25 10:19:56;;;;;;;9.90;6.10;;;;;;;7.67;66.84;99774.04;107607;1253;72676;-40
2024/02/25 10:22:25;;;;;;;14.00;6.00;;;;;;;7.74;66.77;99772.59;107481;1257;61704;-40
2024/02/25 10:25:02;;;;;;;10.30;6.00;;;;;;;7.82;66.92;99775.81;107496;1257;61199;-40
2024/02/25 10:27:30;;;;;;;8.40;6.30;;;;;;;7.89;66.38;99777.86;107661;1254;73092;-40
2024/02/25 10:29:59;;;;;;;19.40;11.90;;;;;;;7.94;66.12;99776.64;107530;1254;67917;-40
2024/02/25 10:32:38;;;;;;;12.70;7.00;;;;;;;7.99;66.30;99773.27;107602;1257;73568;-40
2024/02/25 10:35:07;;;;;;;13.90;6.50;;;;;;;8.04;66.13;99771.66;107548;1253;60462;-40
2024/02/25 10:37:34;;;;;;;12.50;7.90;;;;;;;8.08;65.96;99769.96;107680;1254;60316;-40
2024/02/25 10:40:07;;;;;;;13.20;6.70;;;;;;;8.12;65.98;99768.09;107505;1253;73706;-40
2024/02/25 10:42:42;;;;;;;11.10;5.70;;;;;;;8.17;65.90;99770.60;107538;1257;67439;-40
2024/02/25 10:45:09;;;;;;;11.70;6.80;;;;;;;8.24;65.63;99771.99;107536;1253;73226;-40
2024/02/25 10:47:37;;;;;;;13.40;5.80;;;;;;;8.29;65.47;99764.38;107352;1254;60533;-39
2024/02/25 10:50:06;;;;;;;11.00;6.20;;;;;;;8.32;65.63;99760.32;107376;1253;60298;-40
2024/02/25 10:52:34;;;;;;;12.50;6.40;;;;;;;8.36;65.79;99759.29;107559;1257;73993;-40
2024/02/25 10:55:02;;;;;;;10.70;6.00;;;;;;;8.40;65.60;99760.14;107503;1253;67848;-40
2024/02/25 10:57:31;;;;;;;10.20;6.10;;;;;;;8.41;65.65;99757.33;107638;1253;71457;-40
2024/02/25 10:59:58;;;;;;;14.40;6.40;;;;;;;8.40;65.48;99760.45;107484;1254;60371;-40
2024/02/25 11:02:28;;;;;;;12.90;6.20;;;;;;;8.37;65.23;99761.65;107472;1257;60376;-40
2024/02/25 11:04:58;;;;;;;11.70;5.80;;;;;;;8.35;65.47;99768.52;107490;1252;76034;-40
2024/02/25 11:07:26;;;;;;;11.50;5.60;;;;;;;8.31;65.48;99767.29;107489;1258;68068;-40
2024/02/25 11:09:54;;;;;;;11.50;5.80;;;;;;;8.22;65.80;99755.34;107651;1252;72775;-40
2024/02/25 11:12:25;;;;;;;10.20;6.10;;;;;;;8.27;66.08;99769.33;107499;1257;60335;-39
2024/02/25 11:15:04;;;;;;;16.90;7.00;;;;;;;8.26;66.08;99760.95;107429;1254;60294;-40
2024/02/25 11:17:36;;;;;;;11.50;6.70;;;;;;;8.25;66.27;99759.27;107447;1253;74825;-40
2024/02/25 11:20:11;;;;;;;11.40;6.20;;;;;;;8.24;66.72;99760.41;107593;1253;68528;-39
2024/02/25 11:22:44;;;;;;;10.10;6.40;;;;;;;8.29;66.79;99757.50;107462;1253;72470;-40
2024/02/25 11:25:27;;;;;;;13.00;6.70;;;;;;;8.34;66.52;99755.77;107483;1254;61415;-40
2024/02/25 11:27:56;;;;;;;12.90;6.50;;;;;;;8.40;66.19;99755.96;107461;1253;60951;-40